Time;durP1;ratioP1;P1;durP2;ratioP2;P2;SDS_P1;SDS_P2;PMS_P1;PMS_P2;Temp;Humidity;BMP_temperature;BMP_pressure;BME280_temperature;BME280_humidity;BME280_pressure;Samples;Min_cycle;Max_cycle;Signal;HPM_P1;HPM_P2
2023/08/03 00:04:10;;;;;;;1.70;0.65;;;;;;;21.57;48.39;99084.81;16120945;19;129454;-60
2023/08/03 00:09:32;;;;;;;0.60;0.30;;;;;;;21.57;48.52;99083.97;16115509;19;131277;-60
2023/08/03 00:14:54;;;;;;;1.50;0.40;;;;;;;21.56;48.32;99096.22;16117096;19;129765;-60
2023/08/03 00:20:18;;;;;;;0.65;0.30;;;;;;;21.55;48.40;99105.72;16121899;19;129819;-60
2023/08/03 00:25:39;;;;;;;1.00;0.30;;;;;;;21.54;48.21;99109.66;16120689;19;130109;-60
2023/08/03 00:31:02;;;;;;;1.75;0.40;;;;;;;21.54;48.14;99118.81;16121890;19;130324;-59
2023/08/03 00:36:23;;;;;;;1.02;0.25;;;;;;;21.54;48.28;99129.13;16117700;19;129725;-59
2023/08/03 00:41:45;;;;;;;1.17;0.30;;;;;;;21.53;48.09;99128.28;16117491;19;129670;-59
2023/08/03 00:47:08;;;;;;;1.40;0.40;;;;;;;21.52;48.66;99133.03;16115330;19;129767;-60
2023/08/03 00:52:31;;;;;;;0.95;0.38;;;;;;;21.52;48.13;99133.03;16117079;19;129643;-60
2023/08/03 00:57:53;;;;;;;3.22;0.52;;;;;;;21.51;48.45;99139.75;16118839;19;129627;-60
2023/08/03 01:03:15;;;;;;;1.60;0.40;;;;;;;21.50;48.28;99152.00;16116862;19;129821;-60
2023/08/03 01:08:38;;;;;;;0.90;0.30;;;;;;;21.51;48.64;99158.38;16118704;19;129820;-59
2023/08/03 01:14:00;;;;;;;2.00;0.35;;;;;;;21.50;48.56;99165.91;16120586;19;130192;-60
2023/08/03 01:19:22;;;;;;;1.85;0.50;;;;;;;21.51;48.50;99163.94;16113119;19;130449;-60
2023/08/03 01:24:44;;;;;;;0.77;0.28;;;;;;;21.49;48.23;99164.25;16118220;19;129999;-67
2023/08/03 01:30:07;;;;;;;2.15;0.50;;;;;;;21.50;48.53;99167.84;16117208;19;130080;-62
2023/08/03 01:35:29;;;;;;;1.77;0.45;;;;;;;21.49;48.50;99182.91;16113748;19;130155;-67
2023/08/03 01:40:51;;;;;;;1.50;0.50;;;;;;;21.48;48.31;99184.84;16114664;19;132771;-65
2023/08/03 01:46:13;;;;;;;1.48;0.52;;;;;;;21.48;48.73;99186.78;16111260;19;129694;-70
2023/08/03 01:51:36;;;;;;;2.20;0.40;;;;;;;21.47;48.76;99197.09;16115775;19;130739;-64
2023/08/03 01:56:58;;;;;;;2.00;0.70;;;;;;;21.47;48.60;99197.09;16115202;19;129284;-60
2023/08/03 02:02:20;;;;;;;2.30;0.70;;;;;;;21.48;48.51;99209.88;16117590;19;129613;-60
2023/08/03 02:07:42;;;;;;;4.20;1.10;;;;;;;21.46;48.38;99214.91;16106050;19;131092;-59
2023/08/03 02:13:04;;;;;;;2.72;0.88;;;;;;;21.46;48.53;99217.69;16109626;19;130600;-59
2023/08/03 02:18:29;;;;;;;2.70;0.90;;;;;;;21.46;48.81;99217.69;16112234;19;130637;-60
2023/08/03 02:23:51;;;;;;;3.90;1.00;;;;;;;21.45;48.62;99204.91;16127226;19;130796;-62
2023/08/03 02:29:13;;;;;;;5.93;1.35;;;;;;;21.45;48.52;99215.25;16125783;19;130086;-61
2023/08/03 02:34:36;;;;;;;6.43;1.10;;;;;;;21.44;48.88;99225.53;16128574;19;130533;-60
2023/08/03 02:39:58;;;;;;;2.75;0.95;;;;;;;21.44;48.38;99230.28;16127957;19;129760;-59
2023/08/03 02:45:20;;;;;;;5.45;1.10;;;;;;;21.43;48.78;99235.00;16122791;19;129732;-60
2023/08/03 02:50:42;;;;;;;4.95;1.38;;;;;;;21.44;48.69;99236.66;16129681;19;130203;-60
2023/08/03 02:56:04;;;;;;;4.18;1.10;;;;;;;21.43;48.79;99240.56;16128049;19;130211;-60
2023/08/03 03:01:26;;;;;;;4.82;1.38;;;;;;;21.42;48.47;99247.25;16128420;19;130539;-60
2023/08/03 03:06:49;;;;;;;3.55;1.13;;;;;;;21.42;48.38;99246.44;16131937;19;130404;-61
2023/08/03 03:12:11;;;;;;;5.53;1.20;;;;;;;21.42;48.61;99252.00;16136533;19;129749;-60
2023/08/03 03:17:33;;;;;;;6.38;1.42;;;;;;;21.41;48.73;99253.97;16124020;19;130017;-60
2023/08/03 03:22:55;;;;;;;4.53;1.27;;;;;;;21.40;48.49;99257.88;16130022;19;129933;-60
2023/08/03 03:28:17;;;;;;;4.22;1.35;;;;;;;21.40;48.62;99249.53;16129061;19;130789;-60
2023/08/03 03:33:39;;;;;;;5.57;1.40;;;;;;;21.40;48.63;99268.19;16123378;19;130923;-60
2023/08/03 03:39:01;;;;;;;5.70;1.40;;;;;;;21.39;48.61;99286.84;16123287;19;130836;-60
2023/08/03 03:44:23;;;;;;;8.57;1.42;;;;;;;21.39;48.58;99278.50;16126786;19;131271;-59
2023/08/03 03:49:46;;;;;;;6.15;1.70;;;;;;;21.39;48.92;99284.06;16124977;19;129557;-60
2023/08/03 03:55:08;;;;;;;5.60;1.40;;;;;;;21.39;48.81;99288.78;16126292;19;129502;-61
2023/08/03 04:00:33;;;;;;;5.97;1.35;;;;;;;21.38;48.71;99296.31;16133056;19;129648;-60
2023/08/03 04:05:55;;;;;;;5.70;1.38;;;;;;;21.38;48.44;99315.78;16127643;19;129632;-59
2023/08/03 04:11:17;;;;;;;7.03;1.73;;;;;;;21.39;48.45;99341.63;16131723;19;131036;-59
2023/08/03 04:16:39;;;;;;;5.47;1.50;;;;;;;21.37;48.74;99341.94;16131144;19;130610;-59
2023/08/03 04:22:01;;;;;;;5.13;1.30;;;;;;;21.37;49.08;99353.88;16132802;19;129524;-61
2023/08/03 04:27:23;;;;;;;8.98;1.58;;;;;;;21.35;48.97;99345.00;16175399;19;130134;-58
2023/08/03 04:32:45;;;;;;;5.38;1.40;;;;;;;21.36;48.47;99368.09;16199176;19;128777;-59
2023/08/03 04:38:07;;;;;;;7.78;1.35;;;;;;;21.35;48.66;99372.03;16202011;19;128972;-59
2023/08/03 04:43:29;;;;;;;6.25;1.40;;;;;;;21.34;48.73;99374.00;16198952;19;128470;-60
2023/08/03 04:48:51;;;;;;;5.32;1.45;;;;;;;21.34;48.67;99390.69;16193397;19;129493;-61
2023/08/03 04:54:13;;;;;;;4.93;1.20;;;;;;;21.34;48.62;99404.59;16192657;19;129310;-59
2023/08/03 04:59:35;;;;;;;4.85;1.27;;;;;;;21.33;48.91;99407.66;16195079;19;129744;-59
2023/08/03 05:04:57;;;;;;;6.05;1.50;;;;;;;21.33;48.50;99424.34;16194566;19;129046;-60
2023/08/03 05:10:19;;;;;;;6.05;1.30;;;;;;;21.33;48.57;99424.34;16187334;19;133845;-59
2023/08/03 05:15:41;;;;;;;4.18;1.02;;;;;;;21.32;48.57;99431.88;16195442;19;129373;-59
2023/08/03 05:21:03;;;;;;;4.40;1.10;;;;;;;21.33;48.61;99443.81;16172942;19;130220;-60
2023/08/03 05:26:26;;;;;;;3.67;1.13;;;;;;;21.32;48.99;99456.91;16139146;19;128895;-61
2023/08/03 05:31:48;;;;;;;7.25;1.45;;;;;;;21.31;48.72;99466.38;16134613;19;129312;-60
2023/08/03 05:37:10;;;;;;;3.20;0.93;;;;;;;21.31;49.11;99482.22;16132848;19;129145;-60
2023/08/03 05:42:37;;;;;;;5.32;1.27;;;;;;;21.31;48.94;99488.63;16132717;19;130439;-60
2023/08/03 05:47:59;;;;;;;5.65;1.15;;;;;;;21.30;48.94;99488.91;16128350;19;132867;-60
2023/08/03 05:53:21;;;;;;;7.28;1.25;;;;;;;21.31;48.97;99501.69;16126391;19;129656;-60
2023/08/03 05:58:43;;;;;;;5.70;0.90;;;;;;;21.29;48.85;99512.31;16133895;19;129744;-60
2023/08/03 06:04:12;;;;;;;7.75;1.05;;;;;;;21.31;48.77;99518.38;16130101;19;129569;-59
2023/08/03 06:09:34;;;;;;;5.25;1.00;;;;;;;21.29;49.07;99529.00;16130220;19;129893;-60
2023/08/03 06:14:56;;;;;;;5.00;0.82;;;;;;;21.29;48.99;99540.13;16125849;19;130331;-61
2023/08/03 06:20:22;;;;;;;8.85;1.10;;;;;;;21.28;48.77;99544.84;16117841;19;129653;-60
2023/08/03 06:25:45;;;;;;;;;;;;;;;21.25;48.73;99550.19;16116328;19;129807;-61
2023/08/03 06:31:18;;;;;;;5.30;1.00;;;;;;;21.30;48.60;99552.88;16112531;19;130860;-60
2023/08/03 06:36:42;;;;;;;4.95;1.08;;;;;;;21.26;48.89;99566.56;16116188;19;130789;-60
2023/08/03 06:42:04;;;;;;;5.45;0.95;;;;;;;21.26;48.81;99585.22;16110146;19;131214;-60
2023/08/03 06:47:26;;;;;;;3.17;0.98;;;;;;;21.26;48.75;99591.59;16110821;19;129836;-61
2023/08/03 06:52:50;;;;;;;4.43;1.05;;;;;;;21.25;48.77;99589.94;16106991;19;129530;-60
2023/08/03 06:58:12;;;;;;;1.77;0.73;;;;;;;21.25;49.26;99603.84;16110676;19;130873;-60
2023/08/03 07:03:35;;;;;;;4.88;0.80;;;;;;;21.26;49.28;99629.72;16106720;19;134331;-61
2023/08/03 07:08:57;;;;;;;8.65;0.90;;;;;;;21.28;48.96;99644.19;16124421;19;129894;-64
2023/08/03 07:14:19;;;;;;;3.47;1.00;;;;;;;21.29;49.01;99657.78;16125610;19;129692;-62
2023/08/03 07:19:41;;;;;;;8.48;1.17;;;;;;;21.34;49.03;99677.19;16123574;19;130839;-61
2023/08/03 07:25:04;;;;;;;19.10;1.52;;;;;;;21.35;49.00;99678.00;16121532;19;131031;-60
2023/08/03 07:30:26;;;;;;;8.38;1.70;;;;;;;21.37;48.94;99693.28;16121252;19;129999;-61
2023/08/03 07:35:50;;;;;;;7.78;1.10;;;;;;;21.39;48.99;99698.56;16121952;19;130275;-61
2023/08/03 07:41:13;;;;;;;5.60;1.10;;;;;;;21.42;48.91;99708.28;16124625;19;129752;-61
2023/08/03 07:46:35;;;;;;;7.60;1.10;;;;;;;21.41;48.80;99713.00;16124781;19;130625;-61
2023/08/03 07:51:57;;;;;;;7.15;1.40;;;;;;;21.44;48.89;99720.75;16124933;19;129500;-62
2023/08/03 07:57:19;;;;;;;7.43;1.05;;;;;;;21.45;48.64;99727.16;16122574;19;130922;-61
2023/08/03 08:02:41;;;;;;;6.20;1.58;;;;;;;21.47;48.73;99730.47;16121629;19;130013;-61
2023/08/03 08:08:03;;;;;;;13.70;1.27;;;;;;;21.49;48.82;99740.22;16120045;19;130274;-61
2023/08/03 08:13:25;;;;;;;6.82;1.20;;;;;;;21.50;48.83;99741.88;16120449;19;130130;-61
2023/08/03 08:18:48;;;;;;;8.85;1.77;;;;;;;21.49;49.06;99748.56;16121485;19;130822;-61
2023/08/03 08:24:10;;;;;;;11.05;1.30;;;;;;;21.49;49.07;99779.19;16118062;19;130360;-60
2023/08/03 08:29:32;;;;;;;9.77;1.48;;;;;;;21.50;48.90;99786.41;16123522;19;128971;-59
2023/08/03 08:34:54;;;;;;;9.85;1.67;;;;;;;21.52;49.18;99798.06;16122188;19;134176;-59
2023/08/03 08:40:16;;;;;;;10.45;1.67;;;;;;;21.56;48.81;99812.22;16121001;19;130578;-61
2023/08/03 08:45:39;;;;;;;7.80;1.42;;;;;;;21.59;48.92;99824.72;16122752;19;131717;-60
2023/08/03 08:51:03;;;;;;;10.32;1.15;;;;;;;21.62;49.05;99832.47;16123011;19;129532;-65
2023/08/03 08:56:28;;;;;;;4.80;1.33;;;;;;;21.64;49.03;99841.38;16120190;19;130368;-63
2023/08/03 09:01:54;;;;;;;8.23;1.70;;;;;;;21.65;48.95;99854.16;16119559;19;129671;-64
2023/08/03 09:07:17;;;;;;;7.53;1.83;;;;;;;21.65;48.39;99862.53;16117342;19;129510;-63
2023/08/03 09:12:42;;;;;;;9.70;1.35;;;;;;;21.65;48.94;99877.25;16118847;19;130971;-64
2023/08/03 09:18:05;;;;;;;10.03;1.70;;;;;;;21.63;48.64;99889.81;16117715;19;129370;-64
2023/08/03 09:23:30;;;;;;;9.02;1.95;;;;;;;21.62;48.50;99904.84;16115591;19;129576;-63
2023/08/03 09:28:55;;;;;;;20.50;2.35;;;;;;;21.62;48.69;99921.53;16107873;19;131383;-62
2023/08/03 09:34:17;;;;;;;22.60;2.78;;;;;;;21.62;48.69;99921.53;16112525;19;129580;-64
2023/08/03 09:39:59;;;;;;;26.58;2.70;;;;;;;21.65;49.12;99920.97;16116767;19;130262;-65
2023/08/03 09:45:21;;;;;;;18.48;2.22;;;;;;;21.70;48.78;99928.44;16116131;19;130253;-65
2023/08/03 09:50:51;;;;;;;;;;;;;;;21.70;48.89;99942.34;16112833;19;130902;-65
2023/08/03 09:56:24;;;;;;;13.15;1.83;;;;;;;21.76;49.03;99953.16;16113222;19;129540;-64
2023/08/03 10:01:46;;;;;;;14.27;1.80;;;;;;;21.74;48.65;99960.13;16116347;19;130541;-66
2023/08/03 10:07:11;;;;;;;7.40;1.60;;;;;;;21.73;48.84;99976.00;16113295;19;129767;-63
2023/08/03 10:12:47;;;;;;;13.10;2.00;;;;;;;21.74;48.72;99972.09;16120078;19;129479;-64
2023/08/03 10:18:09;;;;;;;9.40;1.50;;;;;;;21.73;49.11;99989.94;16117771;19;129864;-64
2023/08/03 10:23:31;;;;;;;11.48;1.50;;;;;;;21.72;49.32;99996.63;16115992;19;129667;-64
2023/08/03 10:28:53;;;;;;;6.15;1.52;;;;;;;21.72;49.29;100001.38;16115489;19;130241;-65
2023/08/03 10:34:24;;;;;;;17.85;1.73;;;;;;;21.72;49.71;100016.09;16116288;19;133596;-64
2023/08/03 10:39:49;;;;;;;11.13;1.65;;;;;;;21.69;49.64;100016.66;16116945;19;130418;-67
2023/08/03 10:45:25;;;;;;;11.38;1.65;;;;;;;21.70;49.83;100025.88;16131532;19;130679;-69
2023/08/03 10:50:57;;;;;;;14.00;1.58;;;;;;;21.70;49.51;100032.25;16134308;19;129559;-68
2023/08/03 10:56:19;;;;;;;3.50;0.88;;;;;;;21.69;49.39;100050.06;16130041;19;129395;-71
2023/08/03 11:01:41;;;;;;;6.00;1.75;;;;;;;21.69;49.67;100054.81;16142789;19;129671;-66
2023/08/03 11:07:03;;;;;;;8.50;1.25;;;;;;;21.68;49.49;100065.09;16152067;19;130394;-65
2023/08/03 11:12:27;;;;;;;5.93;1.23;;;;;;;21.69;49.57;100075.13;16151391;19;129520;-64
2023/08/03 11:17:51;;;;;;;5.45;1.40;;;;;;;21.69;49.49;100099.38;16153218;19;130151;-64
2023/08/03 11:23:14;;;;;;;6.30;1.35;;;;;;;21.67;49.70;100113.53;16139196;19;129740;-65
2023/08/03 11:28:43;;;;;;;7.07;1.15;;;;;;;21.67;49.76;100108.84;16141514;19;130732;-63
2023/08/03 11:34:09;;;;;;;4.93;1.10;;;;;;;21.64;49.59;100126.09;16144761;19;130340;-63
2023/08/03 11:39:34;;;;;;;4.72;1.15;;;;;;;21.62;49.60;100138.66;16158527;19;130069;-63
2023/08/03 11:44:57;;;;;;;6.25;1.30;;;;;;;21.60;49.76;100155.63;16128138;19;130932;-65
2023/08/03 11:50:21;;;;;;;4.72;1.08;;;;;;;21.59;50.08;100164.25;16132219;19;129792;-65
2023/08/03 11:55:45;;;;;;;4.22;0.90;;;;;;;21.61;49.75;100175.94;16134447;19;129882;-65
2023/08/03 12:01:07;;;;;;;3.65;1.17;;;;;;;21.62;50.17;100185.97;16130686;19;129391;-65
2023/08/03 12:06:51;;;;;;;5.10;1.30;;;;;;;21.63;50.24;100201.53;16150252;19;129393;-65
2023/08/03 12:12:14;;;;;;;3.45;0.85;;;;;;;21.61;49.97;100201.00;16149276;19;130049;-65
2023/08/03 12:17:38;;;;;;;8.07;1.20;;;;;;;21.60;50.01;100213.25;16159044;19;130655;-65
2023/08/03 12:23:01;;;;;;;3.47;0.85;;;;;;;21.64;49.97;100219.91;16143494;19;129476;-65
2023/08/03 12:28:24;;;;;;;4.25;1.23;;;;;;;21.68;50.46;100232.13;16125160;19;130465;-65
2023/08/03 12:33:48;;;;;;;7.93;1.00;;;;;;;21.71;50.67;100231.56;16123340;19;130224;-64
2023/08/03 12:39:11;;;;;;;15.70;1.50;;;;;;;21.76;50.71;100236.28;16126262;19;130608;-63
2023/08/03 12:44:33;;;;;;;6.65;1.10;;;;;;;21.81;50.82;100247.41;16131292;19;129485;-63
2023/08/03 12:49:58;;;;;;;5.03;0.90;;;;;;;21.82;51.53;100260.22;16132356;19;129226;-63
2023/08/03 12:55:21;;;;;;;12.15;1.85;;;;;;;21.81;51.48;100273.28;16126983;19;131458;-61
2023/08/03 13:00:45;;;;;;;11.48;1.50;;;;;;;21.81;51.47;100287.22;16127354;19;129480;-61
2023/08/03 13:06:07;;;;;;;11.85;1.45;;;;;;;21.78;51.75;100287.81;16124789;19;130001;-54
2023/08/03 13:11:30;;;;;;;10.50;1.70;;;;;;;21.77;51.71;100302.00;16117595;19;129690;-54
2023/08/03 13:16:52;;;;;;;12.70;1.80;;;;;;;21.77;51.55;100308.41;16122701;19;129755;-53
2023/08/03 13:22:14;;;;;;;11.05;1.63;;;;;;;21.78;52.05;100321.22;16119751;19;130064;-54
2023/08/03 13:27:36;;;;;;;13.02;1.65;;;;;;;21.79;51.49;100327.59;16118898;19;130523;-55
2023/08/03 13:32:58;;;;;;;12.00;1.23;;;;;;;21.78;51.33;100332.34;16116867;19;130151;-54
2023/08/03 13:38:21;;;;;;;7.00;1.45;;;;;;;21.77;51.58;100330.69;16118307;19;130248;-56
2023/08/03 13:43:43;;;;;;;19.70;1.83;;;;;;;21.78;51.76;100342.63;16115364;19;129428;-54
2023/08/03 13:49:05;;;;;;;8.25;1.50;;;;;;;21.78;51.54;100365.75;16116425;19;132815;-56
2023/08/03 13:54:27;;;;;;;12.93;1.70;;;;;;;21.75;51.49;100374.66;16109954;19;131569;-54
2023/08/03 13:59:49;;;;;;;9.60;1.92;;;;;;;21.73;51.27;100395.53;16114833;19;129723;-54
2023/08/03 14:05:15;;;;;;;6.30;1.40;;;;;;;21.69;51.18;100400.84;16110944;19;131096;-54
2023/08/03 14:10:57;;;;;;;6.25;1.63;;;;;;;21.66;51.14;100407.81;16113406;19;130731;-53
2023/08/03 14:16:22;;;;;;;6.25;1.65;;;;;;;21.69;51.22;100413.94;16108682;19;129965;-54
2023/08/03 14:21:47;;;;;;;9.13;1.80;;;;;;;21.70;50.89;100422.00;16112403;19;129733;-54
2023/08/03 14:27:20;;;;;;;9.05;1.80;;;;;;;21.74;51.13;100431.47;16108204;19;130144;-52
2023/08/03 14:32:44;;;;;;;7.07;1.67;;;;;;;21.78;50.98;100434.50;16113370;19;129320;-53
2023/08/03 14:38:07;;;;;;;8.88;1.52;;;;;;;21.79;50.90;100447.31;16107953;19;130649;-57
2023/08/03 14:43:29;;;;;;;8.57;1.83;;;;;;;21.77;50.78;100447.63;16107460;19;130248;-53
2023/08/03 14:48:51;;;;;;;5.25;1.73;;;;;;;21.79;50.63;100455.69;16112347;19;129908;-53
2023/08/03 14:54:21;;;;;;;6.35;1.92;;;;;;;21.79;50.61;100462.06;16109105;19;129532;-56
2023/08/03 14:59:43;;;;;;;5.68;1.75;;;;;;;21.78;50.51;100463.22;16111597;19;131322;-55
2023/08/03 15:05:06;;;;;;;7.68;1.90;;;;;;;21.78;50.38;100471.56;16110937;19;129636;-56
2023/08/03 15:10:29;;;;;;;6.65;1.65;;;;;;;21.78;50.39;100476.28;16103827;19;129597;-57
2023/08/03 15:15:52;;;;;;;7.60;1.65;;;;;;;21.79;50.42;100483.53;16109199;19;129672;-52
2023/08/03 15:21:20;;;;;;;5.53;1.63;;;;;;;21.80;50.32;100491.59;16106618;19;130924;-54
2023/08/03 15:26:43;;;;;;;8.68;1.63;;;;;;;21.80;50.53;100505.50;16106517;19;129803;-56
2023/08/03 15:32:14;;;;;;;9.13;1.98;;;;;;;21.79;50.15;100498.25;16121702;19;130599;-54
2023/08/03 15:37:39;;;;;;;5.20;1.50;;;;;;;21.80;50.28;100502.72;16118071;19;133700;-54
2023/08/03 15:43:05;;;;;;;5.93;1.38;;;;;;;21.81;50.40;100504.41;16120063;19;131147;-56
2023/08/03 15:48:33;;;;;;;4.80;1.67;;;;;;;21.82;50.20;100511.63;16121357;19;130639;-56
2023/08/03 15:54:15;;;;;;;7.35;1.73;;;;;;;21.83;50.13;100513.31;16119446;19;130534;-57
2023/08/03 15:59:45;;;;;;;6.85;1.58;;;;;;;21.83;50.41;100530.03;16118351;19;130029;-51
2023/08/03 16:05:08;;;;;;;6.68;1.77;;;;;;;21.83;50.11;100541.16;16118592;19;129790;-54
2023/08/03 16:10:33;;;;;;;5.78;1.55;;;;;;;21.83;49.81;100541.16;16112619;19;129724;-57
2023/08/03 16:16:00;;;;;;;6.72;1.98;;;;;;;21.86;49.73;100550.06;16118919;19;131158;-56
2023/08/03 16:21:23;;;;;;;5.63;1.33;;;;;;;21.83;50.03;100546.72;16114137;19;131931;-53
2023/08/03 16:26:45;;;;;;;4.05;1.17;;;;;;;21.83;50.13;100548.69;16116849;19;129612;-56
2023/08/03 16:32:09;;;;;;;9.88;1.70;;;;;;;21.83;50.11;100563.44;16117906;19;130366;-55
2023/08/03 16:37:34;;;;;;;3.47;1.40;;;;;;;21.85;50.37;100562.31;16110259;19;131066;-56
2023/08/03 16:42:56;;;;;;;6.90;1.70;;;;;;;21.83;50.33;100569.00;16085481;19;131128;-53
2023/08/03 16:48:18;;;;;;;9.85;1.73;;;;;;;21.85;50.36;100577.06;16111698;19;131275;-52
2023/08/03 16:54:00;;;;;;;8.65;2.20;;;;;;;21.84;49.81;100589.34;16119097;19;129508;-56
2023/08/03 16:59:22;;;;;;;5.70;1.58;;;;;;;21.85;50.06;100592.97;16115183;19;129746;-55
2023/08/03 17:04:44;;;;;;;6.85;1.70;;;;;;;21.86;50.40;100605.78;16118963;19;131991;-51
2023/08/03 17:10:08;;;;;;;4.97;1.55;;;;;;;21.86;50.44;100608.56;16114928;19;130152;-55
2023/08/03 17:15:30;;;;;;;5.80;1.70;;;;;;;21.85;50.19;100609.66;16117790;19;129459;-53
2023/08/03 17:20:52;;;;;;;8.90;1.52;;;;;;;21.83;50.27;100624.69;16116434;19;131562;-54
2023/08/03 17:26:15;;;;;;;6.68;1.52;;;;;;;21.82;50.37;100628.59;16118557;19;134801;-54
2023/08/03 17:31:38;;;;;;;6.05;1.65;;;;;;;21.80;50.44;100633.59;16118810;19;130651;-58
2023/08/03 17:37:00;;;;;;;9.77;1.70;;;;;;;21.81;49.89;100638.06;16006309;19;146771;-55
2023/08/03 17:42:22;;;;;;;5.38;2.10;;;;;;;21.80;50.34;100657.84;16109266;19;130220;-52
2023/08/03 17:47:44;;;;;;;9.18;1.90;;;;;;;21.77;50.03;100659.22;16111330;19;129361;-53
2023/08/03 17:53:08;;;;;;;8.23;2.00;;;;;;;21.77;50.13;100673.16;16110938;19;129640;-54
2023/08/03 17:58:30;;;;;;;7.57;1.48;;;;;;;21.75;49.76;100672.59;16108674;19;129326;-56
2023/08/03 18:03:53;;;;;;;6.53;1.85;;;;;;;21.76;50.22;100670.63;16109083;19;130068;-52
2023/08/03 18:09:15;;;;;;;7.88;1.92;;;;;;;21.74;49.96;100679.25;16109471;19;131004;-50
2023/08/03 18:14:37;;;;;;;3.85;1.33;;;;;;;21.74;50.04;100693.19;16112004;19;129846;-54
2023/08/03 18:19:59;;;;;;;6.00;1.63;;;;;;;21.73;50.13;100702.63;16109660;19;129642;-55
2023/08/03 18:25:21;;;;;;;6.10;1.67;;;;;;;21.72;49.71;100700.13;16108689;19;129372;-54
2023/08/03 18:30:43;;;;;;;9.05;1.95;;;;;;;21.71;49.82;100707.63;16108914;19;129145;-55
2023/08/03 18:36:09;;;;;;;19.30;2.15;;;;;;;21.69;49.70;100711.81;16107810;19;129885;-54
2023/08/03 18:41:31;;;;;;;11.55;2.08;;;;;;;21.69;50.01;100712.63;16110108;19;129809;-52
2023/08/03 18:46:53;;;;;;;35.03;3.42;;;;;;;21.69;50.34;100711.81;16109985;19;129990;-53
2023/08/03 18:52:15;;;;;;;18.75;2.17;;;;;;;21.68;50.20;100727.66;16107801;19;129353;-55
2023/08/03 18:57:37;;;;;;;28.08;2.42;;;;;;;21.68;50.00;100727.66;16111002;19;129723;-53
2023/08/03 19:02:59;;;;;;;23.10;3.05;;;;;;;21.67;50.30;100731.56;16114911;19;129653;-53
2023/08/03 19:08:22;;;;;;;16.98;2.30;;;;;;;21.66;50.17;100746.63;16123652;19;130234;-54
2023/08/03 19:13:44;;;;;;;19.20;2.40;;;;;;;21.66;50.07;100746.63;16124273;19;129462;-51
2023/08/03 19:19:07;;;;;;;14.50;2.10;;;;;;;21.65;50.30;100750.50;16108820;19;130522;-51
2023/08/03 19:24:31;;;;;;;14.57;2.00;;;;;;;21.63;50.40;100761.88;16116437;19;131102;-51
2023/08/03 19:29:52;;;;;;;14.63;2.10;;;;;;;21.63;50.41;100773.03;16119215;19;131381;-47
2023/08/03 19:35:15;;;;;;;13.60;2.55;;;;;;;21.63;50.47;100770.25;16114917;19;131204;-55
2023/08/03 19:40:46;;;;;;;15.50;2.92;;;;;;;21.63;50.41;100784.16;16118102;19;130624;-52
2023/08/03 19:46:10;;;;;;;14.63;2.15;;;;;;;21.62;50.43;100798.38;16112992;19;131361;-50
2023/08/03 19:51:34;;;;;;;10.93;2.20;;;;;;;21.63;50.68;100798.09;16112862;19;129882;-49
2023/08/03 19:56:59;;;;;;;15.23;2.53;;;;;;;21.66;50.72;100819.00;16115067;19;135019;-50
2023/08/03 20:02:21;;;;;;;13.50;3.03;;;;;;;21.67;50.87;100826.22;16116519;19;129649;-54
2023/08/03 20:07:46;;;;;;;18.05;2.83;;;;;;;21.70;50.67;100830.44;16117612;19;130344;-52
2023/08/03 20:13:08;;;;;;;14.90;2.42;;;;;;;21.70;50.43;100836.81;16114370;19;130239;-52
2023/08/03 20:18:31;;;;;;;9.18;2.10;;;;;;;21.71;50.55;100841.28;16122323;19;130563;-47
2023/08/03 20:23:53;;;;;;;15.70;2.03;;;;;;;21.73;51.06;100846.56;16120656;19;131102;-48
2023/08/03 20:29:16;;;;;;;27.75;3.03;;;;;;;21.72;51.13;100850.50;16119103;19;130712;-58
2023/08/03 20:34:43;;;;;;;15.25;2.38;;;;;;;21.74;50.91;100859.38;16113633;19;130568;-47
2023/08/03 20:40:09;;;;;;;19.92;2.80;;;;;;;21.71;50.90;100868.31;16118282;19;129467;-51
2023/08/03 20:45:31;;;;;;;29.55;3.75;;;;;;;21.70;50.82;100874.97;16117269;19;129579;-48
2023/08/03 20:50:56;;;;;;;10.07;2.10;;;;;;;21.66;50.86;100875.50;16116948;19;131280;-46
2023/08/03 20:56:18;;;;;;;12.63;1.73;;;;;;;21.65;50.75;100893.31;16114117;19;130974;-49
2023/08/03 21:01:42;;;;;;;20.30;2.80;;;;;;;21.64;50.96;100886.06;16111855;19;129863;-50
2023/08/03 21:07:04;;;;;;;16.45;2.63;;;;;;;21.62;51.13;100895.81;16111883;19;129537;-50
2023/08/03 21:12:26;;;;;;;16.15;2.28;;;;;;;21.60;50.72;100909.16;16111579;19;130717;-46
2023/08/03 21:17:48;;;;;;;18.85;2.17;;;;;;;21.57;50.99;100904.97;16106926;19;131369;-52
2023/08/03 21:23:10;;;;;;;12.60;1.88;;;;;;;21.55;50.94;100912.72;16109726;19;129757;-51
2023/08/03 21:28:32;;;;;;;16.25;2.17;;;;;;;21.53;50.96;100912.16;16112090;19;130831;-51
2023/08/03 21:33:55;;;;;;;14.52;1.92;;;;;;;21.52;50.61;100921.59;16112768;19;129631;-48
2023/08/03 21:39:17;;;;;;;19.88;2.30;;;;;;;21.50;50.49;100921.03;16111559;19;130559;-48
2023/08/03 21:44:39;;;;;;;12.63;2.10;;;;;;;21.48;50.89;100929.63;16116527;19;130446;-49
2023/08/03 21:50:01;;;;;;;11.48;2.50;;;;;;;21.48;50.84;100934.34;16112438;19;130414;-45
2023/08/03 21:55:23;;;;;;;18.23;1.92;;;;;;;21.46;50.75;100942.13;16110470;19;129835;-48
2023/08/03 22:00:46;;;;;;;11.00;1.83;;;;;;;21.44;50.92;100950.72;16109929;19;129648;-47
2023/08/03 22:06:09;;;;;;;11.70;1.92;;;;;;;21.43;50.58;100946.28;16107033;19;130784;-48
2023/08/03 22:11:31;;;;;;;12.48;1.83;;;;;;;21.43;50.56;100945.44;16116322;19;129637;-52
2023/08/03 22:16:56;;;;;;;14.05;1.88;;;;;;;21.41;50.71;100950.44;16113949;19;130035;-49
2023/08/03 22:22:18;;;;;;;8.25;1.73;;;;;;;21.40;50.52;100957.97;16112969;19;130325;-48
2023/08/03 22:27:40;;;;;;;13.40;1.75;;;;;;;21.40;50.83;100960.75;16108099;19;131080;-49
2023/08/03 22:33:02;;;;;;;5.00;1.55;;;;;;;21.38;50.84;100965.72;16106976;19;130650;-52
2023/08/03 22:38:24;;;;;;;9.00;1.77;;;;;;;21.37;50.78;100972.38;16120696;19;129554;-45
2023/08/03 22:43:46;;;;;;;9.18;1.70;;;;;;;21.36;50.60;100981.84;16121116;19;129597;-47
2023/08/03 22:49:08;;;;;;;6.38;1.58;;;;;;;21.34;50.50;100978.47;16125160;19;129563;-53
2023/08/03 22:54:30;;;;;;;6.20;1.30;;;;;;;21.33;50.66;100983.22;16125868;19;130289;-48
2023/08/03 22:59:53;;;;;;;5.82;1.17;;;;;;;21.33;50.75;100999.06;16122897;19;129988;-48
2023/08/03 23:05:15;;;;;;;3.08;1.10;;;;;;;21.32;50.46;101005.72;16122834;19;131116;-51
2023/08/03 23:10:37;;;;;;;6.18;1.45;;;;;;;21.31;50.69;101001.25;16124035;19;129491;-46
2023/08/03 23:16:00;;;;;;;5.90;1.33;;;;;;;21.29;50.42;101009.06;16121583;19;133585;-48
2023/08/03 23:21:22;;;;;;;4.75;1.45;;;;;;;21.29;50.89;101006.28;16119435;19;131228;-48
2023/08/03 23:26:44;;;;;;;6.25;1.50;;;;;;;21.28;50.91;101001.81;16122732;19;130848;-49
2023/08/03 23:32:06;;;;;;;6.40;1.42;;;;;;;21.27;50.83;101011.25;16122092;19;130998;-50
2023/08/03 23:37:29;;;;;;;3.67;1.05;;;;;;;21.26;50.80;101001.22;16118933;19;130367;-49
2023/08/03 23:42:51;;;;;;;7.82;1.20;;;;;;;21.25;50.73;100997.59;16120022;19;130020;-52
2023/08/03 23:48:13;;;;;;;6.82;1.48;;;;;;;21.24;50.42;100995.91;16115454;19;129576;-46
2023/08/03 23:53:35;;;;;;;5.85;1.60;;;;;;;21.22;50.45;100993.41;16118543;19;130288;-52
2023/08/03 23:58:57;;;;;;;5.38;1.30;;;;;;;21.21;50.58;100999.22;16120521;19;129853;-48
